sensor_id;sensor_type;location;lat;lon;timestamp;temperature;humidity
65707;SHT31;52423;43.512;5.220;2022-07-29T00:01:36;22.95;57.88
65707;SHT31;52423;43.512;5.220;2022-07-29T00:04:22;22.91;57.54
65707;SHT31;52423;43.512;5.220;2022-07-29T00:07:08;23.00;57.49
65707;SHT31;52423;43.512;5.220;2022-07-29T00:09:53;23.03;58.21
65707;SHT31;52423;43.512;5.220;2022-07-29T00:12:39;22.93;57.82
65707;SHT31;52423;43.512;5.220;2022-07-29T00:15:25;22.89;58.34
65707;SHT31;52423;43.512;5.220;2022-07-29T00:18:11;22.89;58.19
65707;SHT31;52423;43.512;5.220;2022-07-29T00:20:56;22.88;57.64
65707;SHT31;52423;43.512;5.220;2022-07-29T00:23:42;22.89;57.51
65707;SHT31;52423;43.512;5.220;2022-07-29T00:26:28;22.85;57.40
65707;SHT31;52423;43.512;5.220;2022-07-29T00:29:17;22.85;58.05
65707;SHT31;52423;43.512;5.220;2022-07-29T00:32:02;22.83;57.83
65707;SHT31;52423;43.512;5.220;2022-07-29T00:34:48;22.82;58.59
65707;SHT31;52423;43.512;5.220;2022-07-29T00:37:52;22.82;59.65
65707;SHT31;52423;43.512;5.220;2022-07-29T00:40:38;22.75;61.24
65707;SHT31;52423;43.512;5.220;2022-07-29T00:43:24;22.71;61.17
65707;SHT31;52423;43.512;5.220;2022-07-29T00:46:10;22.55;61.71
65707;SHT31;52423;43.512;5.220;2022-07-29T00:48:57;22.47;63.15
65707;SHT31;52423;43.512;5.220;2022-07-29T00:51:42;22.55;63.43
65707;SHT31;52423;43.512;5.220;2022-07-29T00:54:28;22.52;63.52
65707;SHT31;52423;43.512;5.220;2022-07-29T00:57:14;22.55;63.85
65707;SHT31;52423;43.512;5.220;2022-07-29T01:00:00;22.59;64.37
65707;SHT31;52423;43.512;5.220;2022-07-29T01:02:47;22.58;64.08
65707;SHT31;52423;43.512;5.220;2022-07-29T01:05:36;22.58;63.96
65707;SHT31;52423;43.512;5.220;2022-07-29T01:08:23;22.49;63.70
65707;SHT31;52423;43.512;5.220;2022-07-29T01:11:09;22.49;64.38
65707;SHT31;52423;43.512;5.220;2022-07-29T01:13:55;22.51;63.61
65707;SHT31;52423;43.512;5.220;2022-07-29T01:16:53;22.52;63.85
65707;SHT31;52423;43.512;5.220;2022-07-29T01:20:07;22.51;63.98
65707;SHT31;52423;43.512;5.220;2022-07-29T01:26:31;22.38;64.66
65707;SHT31;52423;43.512;5.220;2022-07-29T01:29:29;22.38;64.57
65707;SHT31;52423;43.512;5.220;2022-07-29T01:32:19;22.38;64.23
65707;SHT31;52423;43.512;5.220;2022-07-29T01:35:18;22.37;64.10
65707;SHT31;52423;43.512;5.220;2022-07-29T01:38:21;22.35;62.94
65707;SHT31;52423;43.512;5.220;2022-07-29T01:41:12;22.44;62.74
65707;SHT31;52423;43.512;5.220;2022-07-29T01:44:17;22.40;63.81
65707;SHT31;52423;43.512;5.220;2022-07-29T01:47:17;22.38;63.78
65707;SHT31;52423;43.512;5.220;2022-07-29T01:50:08;22.28;63.37
65707;SHT31;52423;43.512;5.220;2022-07-29T01:52:59;22.31;63.85
65707;SHT31;52423;43.512;5.220;2022-07-29T01:55:45;22.25;64.02
65707;SHT31;52423;43.512;5.220;2022-07-29T01:58:33;22.24;63.82
65707;SHT31;52423;43.512;5.220;2022-07-29T02:01:21;22.22;63.29
65707;SHT31;52423;43.512;5.220;2022-07-29T02:04:09;22.33;63.38
65707;SHT31;52423;43.512;5.220;2022-07-29T02:07:03;22.28;64.09
65707;SHT31;52423;43.512;5.220;2022-07-29T02:09:51;22.13;63.89
65707;SHT31;52423;43.512;5.220;2022-07-29T02:12:38;22.07;64.70
65707;SHT31;52423;43.512;5.220;2022-07-29T02:15:27;22.00;65.30
65707;SHT31;52423;43.512;5.220;2022-07-29T02:18:17;22.03;65.17
65707;SHT31;52423;43.512;5.220;2022-07-29T02:21:04;21.97;64.64
65707;SHT31;52423;43.512;5.220;2022-07-29T02:23:51;22.08;64.15
65707;SHT31;52423;43.512;5.220;2022-07-29T02:26:39;22.10;63.69
65707;SHT31;52423;43.512;5.220;2022-07-29T02:29:28;22.10;63.41
65707;SHT31;52423;43.512;5.220;2022-07-29T02:32:16;22.13;63.44
65707;SHT31;52423;43.512;5.220;2022-07-29T02:35:03;22.14;63.38
65707;SHT31;52423;43.512;5.220;2022-07-29T02:37:50;22.15;63.25
65707;SHT31;52423;43.512;5.220;2022-07-29T02:40:57;22.08;64.23
65707;SHT31;52423;43.512;5.220;2022-07-29T02:43:47;22.05;63.15
65707;SHT31;52423;43.512;5.220;2022-07-29T02:46:35;22.05;62.54
65707;SHT31;52423;43.512;5.220;2022-07-29T02:52:29;22.11;62.09
65707;SHT31;52423;43.512;5.220;2022-07-29T02:55:27;22.10;62.11
65707;SHT31;52423;43.512;5.220;2022-07-29T02:58:27;22.04;62.12
65707;SHT31;52423;43.512;5.220;2022-07-29T03:01:21;22.11;61.72
65707;SHT31;52423;43.512;5.220;2022-07-29T03:04:09;22.08;61.99
65707;SHT31;52423;43.512;5.220;2022-07-29T03:06:58;22.08;61.87
65707;SHT31;52423;43.512;5.220;2022-07-29T03:09:44;22.05;61.71
65707;SHT31;52423;43.512;5.220;2022-07-29T03:12:31;22.01;62.22
65707;SHT31;52423;43.512;5.220;2022-07-29T03:15:17;22.04;61.98
65707;SHT31;52423;43.512;5.220;2022-07-29T03:18:04;22.01;62.13
65707;SHT31;52423;43.512;5.220;2022-07-29T03:20:51;22.05;61.91
65707;SHT31;52423;43.512;5.220;2022-07-29T03:23:36;22.05;61.98
65707;SHT31;52423;43.512;5.220;2022-07-29T03:26:22;22.03;62.03
65707;SHT31;52423;43.512;5.220;2022-07-29T03:29:08;21.97;61.92
65707;SHT31;52423;43.512;5.220;2022-07-29T03:31:54;21.97;62.23
65707;SHT31;52423;43.512;5.220;2022-07-29T03:34:40;21.98;62.18
65707;SHT31;52423;43.512;5.220;2022-07-29T03:37:26;21.96;62.40
65707;SHT31;52423;43.512;5.220;2022-07-29T03:40:18;21.97;62.56
65707;SHT31;52423;43.512;5.220;2022-07-29T03:43:06;22.01;62.50
65707;SHT31;52423;43.512;5.220;2022-07-29T03:45:54;22.01;63.53
65707;SHT31;52423;43.512;5.220;2022-07-29T03:48:42;22.01;62.49
65707;SHT31;52423;43.512;5.220;2022-07-29T03:51:31;22.03;62.62
65707;SHT31;52423;43.512;5.220;2022-07-29T03:54:17;22.03;62.98
65707;SHT31;52423;43.512;5.220;2022-07-29T03:57:04;22.08;62.53
65707;SHT31;52423;43.512;5.220;2022-07-29T03:59:51;22.07;62.51
65707;SHT31;52423;43.512;5.220;2022-07-29T04:02:38;22.11;62.46
65707;SHT31;52423;43.512;5.220;2022-07-29T04:05:24;22.13;62.26
65707;SHT31;52423;43.512;5.220;2022-07-29T04:08:10;22.14;62.16
65707;SHT31;52423;43.512;5.220;2022-07-29T04:10:56;22.07;62.40
65707;SHT31;52423;43.512;5.220;2022-07-29T04:13:42;22.11;62.52
65707;SHT31;52423;43.512;5.220;2022-07-29T04:16:27;22.11;62.63
65707;SHT31;52423;43.512;5.220;2022-07-29T04:19:13;22.11;62.73
65707;SHT31;52423;43.512;5.220;2022-07-29T04:21:59;22.14;62.72
65707;SHT31;52423;43.512;5.220;2022-07-29T04:24:45;22.14;62.75
65707;SHT31;52423;43.512;5.220;2022-07-29T04:27:31;22.17;62.66
65707;SHT31;52423;43.512;5.220;2022-07-29T04:30:17;22.24;62.64
65707;SHT31;52423;43.512;5.220;2022-07-29T04:33:04;22.28;62.86
65707;SHT31;52423;43.512;5.220;2022-07-29T04:35:50;22.33;62.24
65707;SHT31;52423;43.512;5.220;2022-07-29T04:38:37;22.30;62.29
65707;SHT31;52423;43.512;5.220;2022-07-29T04:41:22;22.33;61.88
65707;SHT31;52423;43.512;5.220;2022-07-29T04:44:08;22.34;61.57
65707;SHT31;52423;43.512;5.220;2022-07-29T04:46:54;22.38;61.81
65707;SHT31;52423;43.512;5.220;2022-07-29T04:49:40;22.41;61.34
65707;SHT31;52423;43.512;5.220;2022-07-29T04:52:25;22.44;61.33
65707;SHT31;52423;43.512;5.220;2022-07-29T04:55:11;22.45;61.22
65707;SHT31;52423;43.512;5.220;2022-07-29T04:57:57;22.55;61.30
65707;SHT31;52423;43.512;5.220;2022-07-29T05:00:43;22.58;61.45
65707;SHT31;52423;43.512;5.220;2022-07-29T05:03:29;22.56;61.00
65707;SHT31;52423;43.512;5.220;2022-07-29T05:06:15;22.56;61.18
65707;SHT31;52423;43.512;5.220;2022-07-29T05:09:00;22.54;61.12
65707;SHT31;52423;43.512;5.220;2022-07-29T05:11:46;22.61;60.88
65707;SHT31;52423;43.512;5.220;2022-07-29T05:14:32;22.58;60.87
65707;SHT31;52423;43.512;5.220;2022-07-29T05:17:18;22.61;60.91
65707;SHT31;52423;43.512;5.220;2022-07-29T05:20:05;22.62;60.47
65707;SHT31;52423;43.512;5.220;2022-07-29T05:22:50;22.64;60.73
65707;SHT31;52423;43.512;5.220;2022-07-29T05:25:36;22.66;60.52
65707;SHT31;52423;43.512;5.220;2022-07-29T05:28:22;22.68;60.44
65707;SHT31;52423;43.512;5.220;2022-07-29T05:31:08;22.81;61.03
65707;SHT31;52423;43.512;5.220;2022-07-29T05:33:53;22.95;60.83
65707;SHT31;52423;43.512;5.220;2022-07-29T05:36:39;23.09;59.93
65707;SHT31;52423;43.512;5.220;2022-07-29T05:39:25;23.05;60.42
65707;SHT31;52423;43.512;5.220;2022-07-29T05:42:10;23.02;59.80
65707;SHT31;52423;43.512;5.220;2022-07-29T05:44:57;23.02;60.12
65707;SHT31;52423;43.512;5.220;2022-07-29T05:47:42;23.03;60.06
65707;SHT31;52423;43.512;5.220;2022-07-29T05:50:28;23.13;60.56
65707;SHT31;52423;43.512;5.220;2022-07-29T05:53:14;23.07;59.83
65707;SHT31;52423;43.512;5.220;2022-07-29T05:56:03;23.09;60.00
65707;SHT31;52423;43.512;5.220;2022-07-29T05:58:50;23.14;60.24
65707;SHT31;52423;43.512;5.220;2022-07-29T06:01:36;23.23;60.18
65707;SHT31;52423;43.512;5.220;2022-07-29T06:04:24;23.31;60.51
65707;SHT31;52423;43.512;5.220;2022-07-29T06:07:10;23.39;61.00
65707;SHT31;52423;43.512;5.220;2022-07-29T06:09:56;23.43;60.74
65707;SHT31;52423;43.512;5.220;2022-07-29T06:12:42;23.50;61.30
65707;SHT31;52423;43.512;5.220;2022-07-29T06:15:28;23.55;61.94
65707;SHT31;52423;43.512;5.220;2022-07-29T06:18:13;23.65;61.69
65707;SHT31;52423;43.512;5.220;2022-07-29T06:20:59;23.68;61.63
65707;SHT31;52423;43.512;5.220;2022-07-29T06:23:45;23.75;61.95
65707;SHT31;52423;43.512;5.220;2022-07-29T06:26:31;23.78;61.60
65707;SHT31;52423;43.512;5.220;2022-07-29T06:29:16;23.84;60.90
65707;SHT31;52423;43.512;5.220;2022-07-29T06:32:03;23.88;61.50
65707;SHT31;52423;43.512;5.220;2022-07-29T06:34:49;23.91;59.82
65707;SHT31;52423;43.512;5.220;2022-07-29T06:37:35;23.92;59.58
65707;SHT31;52423;43.512;5.220;2022-07-29T06:40:20;23.88;58.56
65707;SHT31;52423;43.512;5.220;2022-07-29T06:43:29;23.89;58.51
65707;SHT31;52423;43.512;5.220;2022-07-29T06:46:18;23.94;59.11
65707;SHT31;52423;43.512;5.220;2022-07-29T06:49:04;23.97;60.04
65707;SHT31;52423;43.512;5.220;2022-07-29T06:51:50;23.97;58.86
65707;SHT31;52423;43.512;5.220;2022-07-29T06:54:36;23.98;58.45
65707;SHT31;52423;43.512;5.220;2022-07-29T06:57:24;24.00;59.35
65707;SHT31;52423;43.512;5.220;2022-07-29T07:00:10;24.00;60.75
65707;SHT31;52423;43.512;5.220;2022-07-29T07:02:56;23.95;59.09
65707;SHT31;52423;43.512;5.220;2022-07-29T07:05:41;23.94;59.33
65707;SHT31;52423;43.512;5.220;2022-07-29T07:08:27;24.00;58.06
65707;SHT31;52423;43.512;5.220;2022-07-29T07:11:13;24.06;58.74
65707;SHT31;52423;43.512;5.220;2022-07-29T07:13:59;24.11;59.35
65707;SHT31;52423;43.512;5.220;2022-07-29T07:16:44;24.15;58.77
65707;SHT31;52423;43.512;5.220;2022-07-29T07:19:30;24.18;58.94
65707;SHT31;52423;43.512;5.220;2022-07-29T07:22:16;24.23;59.22
65707;SHT31;52423;43.512;5.220;2022-07-29T07:25:02;24.26;59.76
65707;SHT31;52423;43.512;5.220;2022-07-29T07:27:48;24.29;60.08
65707;SHT31;52423;43.512;5.220;2022-07-29T07:30:34;24.30;60.62
65707;SHT31;52423;43.512;5.220;2022-07-29T07:33:20;24.28;60.98
65707;SHT31;52423;43.512;5.220;2022-07-29T07:36:06;24.26;60.82
65707;SHT31;52423;43.512;5.220;2022-07-29T07:38:51;24.22;60.23
65707;SHT31;52423;43.512;5.220;2022-07-29T07:41:37;24.22;59.97
65707;SHT31;52423;43.512;5.220;2022-07-29T07:44:23;24.35;59.61
65707;SHT31;52423;43.512;5.220;2022-07-29T07:47:08;24.32;60.65
65707;SHT31;52423;43.512;5.220;2022-07-29T07:49:54;24.32;60.68
65707;SHT31;52423;43.512;5.220;2022-07-29T07:52:51;24.32;61.65
65707;SHT31;52423;43.512;5.220;2022-07-29T07:55:41;24.30;61.24
65707;SHT31;52423;43.512;5.220;2022-07-29T07:58:27;24.33;60.44
65707;SHT31;52423;43.512;5.220;2022-07-29T08:01:13;24.39;59.57
65707;SHT31;52423;43.512;5.220;2022-07-29T08:03:58;24.52;59.14
65707;SHT31;52423;43.512;5.220;2022-07-29T08:06:44;24.62;56.70
65707;SHT31;52423;43.512;5.220;2022-07-29T08:09:30;24.72;56.10
65707;SHT31;52423;43.512;5.220;2022-07-29T08:12:16;24.76;55.08
65707;SHT31;52423;43.512;5.220;2022-07-29T08:15:02;24.94;54.98
65707;SHT31;52423;43.512;5.220;2022-07-29T08:17:47;25.14;55.06
65707;SHT31;52423;43.512;5.220;2022-07-29T08:20:34;25.37;53.77
65707;SHT31;52423;43.512;5.220;2022-07-29T08:23:21;25.55;53.57
65707;SHT31;52423;43.512;5.220;2022-07-29T08:26:08;25.75;52.77
65707;SHT31;52423;43.512;5.220;2022-07-29T08:28:57;25.89;51.89
65707;SHT31;52423;43.512;5.220;2022-07-29T08:31:43;26.00;52.16
65707;SHT31;52423;43.512;5.220;2022-07-29T08:34:29;26.03;51.30
65707;SHT31;52423;43.512;5.220;2022-07-29T08:37:15;26.02;51.57
65707;SHT31;52423;43.512;5.220;2022-07-29T08:40:01;26.02;51.81
65707;SHT31;52423;43.512;5.220;2022-07-29T08:42:46;26.02;50.89
65707;SHT31;52423;43.512;5.220;2022-07-29T08:45:49;25.99;51.56
65707;SHT31;52423;43.512;5.220;2022-07-29T08:48:36;25.96;51.80
65707;SHT31;52423;43.512;5.220;2022-07-29T08:51:22;26.00;52.89
65707;SHT31;52423;43.512;5.220;2022-07-29T08:54:09;26.12;52.18
65707;SHT31;52423;43.512;5.220;2022-07-29T08:56:55;26.14;51.15
65707;SHT31;52423;43.512;5.220;2022-07-29T08:59:42;26.12;51.56
65707;SHT31;52423;43.512;5.220;2022-07-29T09:02:29;26.13;52.48
65707;SHT31;52423;43.512;5.220;2022-07-29T09:05:20;26.13;51.39
65707;SHT31;52423;43.512;5.220;2022-07-29T09:08:05;26.07;51.14
65707;SHT31;52423;43.512;5.220;2022-07-29T09:10:51;26.10;51.37
65707;SHT31;52423;43.512;5.220;2022-07-29T09:13:37;26.16;51.66
65707;SHT31;52423;43.512;5.220;2022-07-29T09:16:23;26.33;50.37
65707;SHT31;52423;43.512;5.220;2022-07-29T09:19:29;26.44;51.57
65707;SHT31;52423;43.512;5.220;2022-07-29T09:22:28;26.41;50.74
65707;SHT31;52423;43.512;5.220;2022-07-29T09:25:35;26.39;52.31
65707;SHT31;52423;43.512;5.220;2022-07-29T09:28:21;26.39;52.29
65707;SHT31;52423;43.512;5.220;2022-07-29T09:31:09;26.24;53.17
65707;SHT31;52423;43.512;5.220;2022-07-29T09:33:58;26.14;52.66
65707;SHT31;52423;43.512;5.220;2022-07-29T09:36:47;26.13;52.60
65707;SHT31;52423;43.512;5.220;2022-07-29T09:39:36;26.09;52.77
65707;SHT31;52423;43.512;5.220;2022-07-29T09:42:29;26.17;54.09
65707;SHT31;52423;43.512;5.220;2022-07-29T09:45:32;26.33;53.02
65707;SHT31;52423;43.512;5.220;2022-07-29T09:48:22;26.39;52.99
65707;SHT31;52423;43.512;5.220;2022-07-29T09:51:20;26.45;53.49
65707;SHT31;52423;43.512;5.220;2022-07-29T09:54:26;26.43;53.01
65707;SHT31;52423;43.512;5.220;2022-07-29T09:57:28;26.37;52.95
65707;SHT31;52423;43.512;5.220;2022-07-29T10:00:17;26.43;52.87
65707;SHT31;52423;43.512;5.220;2022-07-29T10:03:03;26.55;53.36
65707;SHT31;52423;43.512;5.220;2022-07-29T10:06:08;27.01;52.22
65707;SHT31;52423;43.512;5.220;2022-07-29T10:08:54;26.87;50.87
65707;SHT31;52423;43.512;5.220;2022-07-29T10:11:40;26.96;51.70
65707;SHT31;52423;43.512;5.220;2022-07-29T10:14:26;27.23;50.46
65707;SHT31;52423;43.512;5.220;2022-07-29T10:17:12;27.50;49.37
65707;SHT31;52423;43.512;5.220;2022-07-29T10:19:57;27.56;49.21
65707;SHT31;52423;43.512;5.220;2022-07-29T10:22:43;27.52;49.16
65707;SHT31;52423;43.512;5.220;2022-07-29T10:25:29;27.49;50.51
65707;SHT31;52423;43.512;5.220;2022-07-29T10:28:15;27.42;51.13
65707;SHT31;52423;43.512;5.220;2022-07-29T10:31:06;27.38;52.05
65707;SHT31;52423;43.512;5.220;2022-07-29T10:34:13;27.39;51.74
65707;SHT31;52423;43.512;5.220;2022-07-29T10:43:37;27.49;49.47
65707;SHT31;52423;43.512;5.220;2022-07-29T10:46:27;27.49;49.58
65707;SHT31;52423;43.512;5.220;2022-07-29T10:49:21;27.53;49.77
65707;SHT31;52423;43.512;5.220;2022-07-29T10:52:09;27.64;50.01
65707;SHT31;52423;43.512;5.220;2022-07-29T10:54:55;27.70;49.43
65707;SHT31;52423;43.512;5.220;2022-07-29T11:01:28;27.86;49.11
65707;SHT31;52423;43.512;5.220;2022-07-29T11:04:14;27.76;48.04
65707;SHT31;52423;43.512;5.220;2022-07-29T11:13:01;27.89;49.92
65707;SHT31;52423;43.512;5.220;2022-07-29T11:21:55;28.13;50.35
65707;SHT31;52423;43.512;5.220;2022-07-29T11:24:41;28.00;50.68
65707;SHT31;52423;43.512;5.220;2022-07-29T11:27:30;27.87;51.59
65707;SHT31;52423;43.512;5.220;2022-07-29T11:30:48;27.97;49.42
65707;SHT31;52423;43.512;5.220;2022-07-29T11:33:35;27.97;49.89
65707;SHT31;52423;43.512;5.220;2022-07-29T11:36:21;27.98;49.19
65707;SHT31;52423;43.512;5.220;2022-07-29T11:39:26;27.62;49.66
65707;SHT31;52423;43.512;5.220;2022-07-29T11:45:15;27.35;51.88
65707;SHT31;52423;43.512;5.220;2022-07-29T11:48:03;27.35;51.95
65707;SHT31;52423;43.512;5.220;2022-07-29T11:50:51;27.25;53.31
65707;SHT31;52423;43.512;5.220;2022-07-29T11:53:39;27.45;52.48
65707;SHT31;52423;43.512;5.220;2022-07-29T11:56:25;27.53;51.37
65707;SHT31;52423;43.512;5.220;2022-07-29T11:59:15;27.49;51.78
65707;SHT31;52423;43.512;5.220;2022-07-29T12:02:00;27.50;50.75
65707;SHT31;52423;43.512;5.220;2022-07-29T12:04:56;27.54;50.77
65707;SHT31;52423;43.512;5.220;2022-07-29T12:07:44;27.47;49.98
65707;SHT31;52423;43.512;5.220;2022-07-29T12:10:31;27.46;50.31
65707;SHT31;52423;43.512;5.220;2022-07-29T12:13:19;27.46;49.70
65707;SHT31;52423;43.512;5.220;2022-07-29T12:16:05;27.79;49.10
65707;SHT31;52423;43.512;5.220;2022-07-29T12:18:58;27.86;48.83
65707;SHT31;52423;43.512;5.220;2022-07-29T12:21:46;28.00;47.22
65707;SHT31;52423;43.512;5.220;2022-07-29T12:24:43;28.54;45.50
65707;SHT31;52423;43.512;5.220;2022-07-29T12:27:29;29.16;43.86
65707;SHT31;52423;43.512;5.220;2022-07-29T12:30:16;29.55;43.53
65707;SHT31;52423;43.512;5.220;2022-07-29T12:33:10;29.71;42.54
65707;SHT31;52423;43.512;5.220;2022-07-29T12:36:00;29.84;41.35
65707;SHT31;52423;43.512;5.220;2022-07-29T12:38:47;30.06;41.17
65707;SHT31;52423;43.512;5.220;2022-07-29T12:41:33;30.32;40.28
65707;SHT31;52423;43.512;5.220;2022-07-29T12:44:18;30.36;40.29
65707;SHT31;52423;43.512;5.220;2022-07-29T12:47:04;30.53;38.64
65707;SHT31;52423;43.512;5.220;2022-07-29T12:49:50;30.70;39.03
65707;SHT31;52423;43.512;5.220;2022-07-29T12:52:52;30.72;38.91
65707;SHT31;52423;43.512;5.220;2022-07-29T12:55:43;30.73;39.24
65707;SHT31;52423;43.512;5.220;2022-07-29T12:58:30;30.59;39.02
65707;SHT31;52423;43.512;5.220;2022-07-29T13:01:17;30.35;39.86
65707;SHT31;52423;43.512;5.220;2022-07-29T13:04:04;30.01;40.49
65707;SHT31;52423;43.512;5.220;2022-07-29T13:06:58;29.85;41.08
65707;SHT31;52423;43.512;5.220;2022-07-29T13:09:45;29.65;41.09
65707;SHT31;52423;43.512;5.220;2022-07-29T13:12:31;29.61;41.26
65707;SHT31;52423;43.512;5.220;2022-07-29T13:15:16;29.63;41.55
65707;SHT31;52423;43.512;5.220;2022-07-29T13:18:02;29.60;41.90
65707;SHT31;52423;43.512;5.220;2022-07-29T13:20:49;29.49;41.62
65707;SHT31;52423;43.512;5.220;2022-07-29T13:23:35;29.50;41.74
65707;SHT31;52423;43.512;5.220;2022-07-29T13:26:21;29.64;40.71
65707;SHT31;52423;43.512;5.220;2022-07-29T13:29:06;29.80;40.03
65707;SHT31;52423;43.512;5.220;2022-07-29T13:31:52;29.74;40.76
65707;SHT31;52423;43.512;5.220;2022-07-29T13:34:38;29.53;41.02
65707;SHT31;52423;43.512;5.220;2022-07-29T13:37:24;29.22;40.31
65707;SHT31;52423;43.512;5.220;2022-07-29T13:40:12;29.16;40.34
65707;SHT31;52423;43.512;5.220;2022-07-29T13:42:57;29.23;39.82
65707;SHT31;52423;43.512;5.220;2022-07-29T13:45:43;29.24;39.97
65707;SHT31;52423;43.512;5.220;2022-07-29T13:48:29;29.23;40.40
65707;SHT31;52423;43.512;5.220;2022-07-29T13:51:15;29.30;40.88
65707;SHT31;52423;43.512;5.220;2022-07-29T13:54:00;29.29;40.66
65707;SHT31;52423;43.512;5.220;2022-07-29T13:56:46;29.44;39.76
65707;SHT31;52423;43.512;5.220;2022-07-29T13:59:32;29.68;39.78
65707;SHT31;52423;43.512;5.220;2022-07-29T14:02:18;29.89;41.04
65707;SHT31;52423;43.512;5.220;2022-07-29T14:05:05;29.78;40.49
65707;SHT31;52423;43.512;5.220;2022-07-29T14:07:51;29.60;40.84
65707;SHT31;52423;43.512;5.220;2022-07-29T14:10:37;29.35;40.88
65707;SHT31;52423;43.512;5.220;2022-07-29T14:13:22;29.20;41.02
65707;SHT31;52423;43.512;5.220;2022-07-29T14:16:08;29.06;41.41
65707;SHT31;52423;43.512;5.220;2022-07-29T14:18:54;29.34;41.53
65707;SHT31;52423;43.512;5.220;2022-07-29T14:21:40;29.74;39.22
65707;SHT31;52423;43.512;5.220;2022-07-29T14:24:25;29.95;38.64
65707;SHT31;52423;43.512;5.220;2022-07-29T14:27:11;30.16;38.57
65707;SHT31;52423;43.512;5.220;2022-07-29T14:29:57;30.23;38.48
65707;SHT31;52423;43.512;5.220;2022-07-29T14:32:43;30.32;38.72
65707;SHT31;52423;43.512;5.220;2022-07-29T14:35:28;30.40;38.51
65707;SHT31;52423;43.512;5.220;2022-07-29T14:38:14;30.18;38.64
65707;SHT31;52423;43.512;5.220;2022-07-29T14:41:00;30.09;39.21
65707;SHT31;52423;43.512;5.220;2022-07-29T14:43:46;30.31;38.65
65707;SHT31;52423;43.512;5.220;2022-07-29T14:46:31;30.40;38.54
65707;SHT31;52423;43.512;5.220;2022-07-29T14:49:17;30.40;39.08
65707;SHT31;52423;43.512;5.220;2022-07-29T14:52:04;30.33;38.02
65707;SHT31;52423;43.512;5.220;2022-07-29T14:54:49;30.28;38.84
65707;SHT31;52423;43.512;5.220;2022-07-29T14:57:35;30.26;38.83
65707;SHT31;52423;43.512;5.220;2022-07-29T15:00:21;30.35;38.64
65707;SHT31;52423;43.512;5.220;2022-07-29T15:03:07;30.32;39.25
65707;SHT31;52423;43.512;5.220;2022-07-29T15:05:55;30.33;39.39
65707;SHT31;52423;43.512;5.220;2022-07-29T15:08:41;30.37;39.28
65707;SHT31;52423;43.512;5.220;2022-07-29T15:11:27;30.33;39.31
65707;SHT31;52423;43.512;5.220;2022-07-29T15:14:13;30.39;39.55
65707;SHT31;52423;43.512;5.220;2022-07-29T15:16:58;30.31;39.30
65707;SHT31;52423;43.512;5.220;2022-07-29T15:19:44;30.37;39.39
65707;SHT31;52423;43.512;5.220;2022-07-29T15:22:30;30.32;39.55
65707;SHT31;52423;43.512;5.220;2022-07-29T15:25:16;30.36;39.79
65707;SHT31;52423;43.512;5.220;2022-07-29T15:28:02;30.29;38.63
65707;SHT31;52423;43.512;5.220;2022-07-29T15:30:49;30.16;38.83
65707;SHT31;52423;43.512;5.220;2022-07-29T15:33:35;30.26;39.23
65707;SHT31;52423;43.512;5.220;2022-07-29T15:36:21;30.33;38.60
65707;SHT31;52423;43.512;5.220;2022-07-29T15:39:06;30.33;38.79
65707;SHT31;52423;43.512;5.220;2022-07-29T15:41:52;30.32;38.79
65707;SHT31;52423;43.512;5.220;2022-07-29T15:44:38;30.35;38.71
65707;SHT31;52423;43.512;5.220;2022-07-29T15:47:23;30.35;38.59
65707;SHT31;52423;43.512;5.220;2022-07-29T15:50:09;30.42;38.57
65707;SHT31;52423;43.512;5.220;2022-07-29T15:53:00;30.22;39.45
65707;SHT31;52423;43.512;5.220;2022-07-29T15:55:46;30.12;40.01
65707;SHT31;52423;43.512;5.220;2022-07-29T15:58:32;30.23;40.01
65707;SHT31;52423;43.512;5.220;2022-07-29T16:01:18;30.40;39.86
65707;SHT31;52423;43.512;5.220;2022-07-29T16:04:03;30.22;39.90
65707;SHT31;52423;43.512;5.220;2022-07-29T16:06:50;30.12;40.20
65707;SHT31;52423;43.512;5.220;2022-07-29T16:09:35;30.19;40.09
65707;SHT31;52423;43.512;5.220;2022-07-29T16:12:21;30.15;40.38
65707;SHT31;52423;43.512;5.220;2022-07-29T16:15:07;30.11;40.62
65707;SHT31;52423;43.512;5.220;2022-07-29T16:17:53;30.12;40.68
65707;SHT31;52423;43.512;5.220;2022-07-29T16:20:40;30.28;38.58
65707;SHT31;52423;43.512;5.220;2022-07-29T16:23:26;30.29;38.82
65707;SHT31;52423;43.512;5.220;2022-07-29T16:26:12;30.06;37.62
65707;SHT31;52423;43.512;5.220;2022-07-29T16:28:57;30.06;38.51
65707;SHT31;52423;43.512;5.220;2022-07-29T16:31:44;29.97;38.44
65707;SHT31;52423;43.512;5.220;2022-07-29T16:34:29;30.00;38.63
65707;SHT31;52423;43.512;5.220;2022-07-29T16:37:15;30.00;38.83
65707;SHT31;52423;43.512;5.220;2022-07-29T16:40:02;29.97;39.10
65707;SHT31;52423;43.512;5.220;2022-07-29T16:42:48;30.01;38.22
65707;SHT31;52423;43.512;5.220;2022-07-29T16:45:35;30.05;37.49
65707;SHT31;52423;43.512;5.220;2022-07-29T16:48:21;30.00;38.69
65707;SHT31;52423;43.512;5.220;2022-07-29T16:51:07;29.97;39.57
65707;SHT31;52423;43.512;5.220;2022-07-29T16:53:52;30.00;39.64
65707;SHT31;52423;43.512;5.220;2022-07-29T16:56:38;30.00;40.24
65707;SHT31;52423;43.512;5.220;2022-07-29T16:59:24;29.97;40.06
65707;SHT31;52423;43.512;5.220;2022-07-29T17:02:10;29.86;40.32
65707;SHT31;52423;43.512;5.220;2022-07-29T17:04:56;29.88;40.73
65707;SHT31;52423;43.512;5.220;2022-07-29T17:07:42;29.86;40.35
65707;SHT31;52423;43.512;5.220;2022-07-29T17:10:28;29.88;40.00
65707;SHT31;52423;43.512;5.220;2022-07-29T17:13:14;29.88;40.13
65707;SHT31;52423;43.512;5.220;2022-07-29T17:16:00;29.88;40.26
65707;SHT31;52423;43.512;5.220;2022-07-29T17:18:45;29.84;40.20
65707;SHT31;52423;43.512;5.220;2022-07-29T17:21:31;29.95;39.69
65707;SHT31;52423;43.512;5.220;2022-07-29T17:24:17;29.97;39.40
65707;SHT31;52423;43.512;5.220;2022-07-29T17:27:03;29.86;40.20
65707;SHT31;52423;43.512;5.220;2022-07-29T17:29:49;29.92;39.70
65707;SHT31;52423;43.512;5.220;2022-07-29T17:32:35;29.86;40.02
65707;SHT31;52423;43.512;5.220;2022-07-29T17:35:24;29.75;40.41
65707;SHT31;52423;43.512;5.220;2022-07-29T17:38:28;29.74;40.40
65707;SHT31;52423;43.512;5.220;2022-07-29T17:41:14;29.74;40.43
65707;SHT31;52423;43.512;5.220;2022-07-29T17:44:00;29.35;47.24
65707;SHT31;52423;43.512;5.220;2022-07-29T17:46:46;29.04;48.84
65707;SHT31;52423;43.512;5.220;2022-07-29T17:49:32;28.82;49.40
65707;SHT31;52423;43.512;5.220;2022-07-29T17:52:18;28.65;49.38
65707;SHT31;52423;43.512;5.220;2022-07-29T17:55:05;28.49;49.90
65707;SHT31;52423;43.512;5.220;2022-07-29T17:57:51;28.35;50.33
65707;SHT31;52423;43.512;5.220;2022-07-29T18:00:37;28.29;50.32
65707;SHT31;52423;43.512;5.220;2022-07-29T18:03:22;28.07;50.41
65707;SHT31;52423;43.512;5.220;2022-07-29T18:06:09;28.11;50.30
65707;SHT31;52423;43.512;5.220;2022-07-29T18:08:55;27.89;50.41
65707;SHT31;52423;43.512;5.220;2022-07-29T18:11:40;27.79;51.03